createdAt,value
2023-04-29T00:00:28.900Z,99887.13
2023-04-29T00:05:33.047Z,99916.84
2023-04-29T00:10:37.186Z,99921.53
2023-04-29T00:15:42.537Z,99918.47
2023-04-29T00:20:46.484Z,99920.19
2023-04-29T00:25:51.321Z,99931.09
2023-04-29T00:30:56.473Z,99934.50
2023-04-29T00:36:00.909Z,99938.38
2023-04-29T00:41:05.451Z,99923.25
2023-04-29T00:46:11.241Z,99903.59
2023-04-29T00:51:15.520Z,99912.78
2023-04-29T00:56:21.798Z,99924.13
2023-04-29T01:01:25.980Z,99904.16
2023-04-29T01:06:59.280Z,99920.41
2023-04-29T01:12:23.379Z,99908.13
2023-04-29T01:17:32.312Z,99917.66
2023-04-29T01:22:36.432Z,99932.88
2023-04-29T01:27:48.957Z,99928.03
2023-04-29T01:33:23.120Z,99937.53
2023-04-29T01:38:40.708Z,99927.47
2023-04-29T01:43:49.281Z,99925.09
2023-04-29T01:48:58.207Z,99936.00
2023-04-29T01:54:02.798Z,99927.84
2023-04-29T01:59:06.819Z,99927.09
2023-04-29T02:04:20.126Z,99927.41
2023-04-29T02:09:24.340Z,99924.09
2023-04-29T02:15:11.343Z,99927.72
2023-04-29T02:20:15.398Z,99922.53
2023-04-29T02:25:19.770Z,99921.72
2023-04-29T02:30:24.795Z,99914.66
2023-04-29T02:35:28.907Z,99910.16
2023-04-29T02:40:33.622Z,99920.25
2023-04-29T02:45:38.475Z,99917.59
2023-04-29T02:50:42.772Z,99923.88
2023-04-29T02:55:46.651Z,99912.50
2023-04-29T03:00:51.638Z,99894.44
2023-04-29T03:05:55.503Z,99907.69
2023-04-29T03:10:59.818Z,99907.00
2023-04-29T03:16:07.579Z,99879.41
2023-04-29T03:21:12.277Z,99891.97
2023-04-29T03:26:16.311Z,99902.91
2023-04-29T03:31:22.034Z,99896.16
2023-04-29T03:36:26.369Z,99881.91
2023-04-29T03:41:40.400Z,99899.19
2023-04-29T03:46:46.543Z,99897.94
2023-04-29T03:51:50.772Z,99904.13
2023-04-29T03:56:56.432Z,99890.75
2023-04-29T04:02:01.257Z,99901.78
2023-04-29T04:07:06.827Z,99855.72
2023-04-29T04:12:28.909Z,99909.91
2023-04-29T04:17:33.448Z,99905.66
2023-04-29T04:22:38.822Z,99909.38
2023-04-29T04:27:52.439Z,99909.72
2023-04-29T04:33:08.372Z,99911.63
2023-04-29T04:38:14.000Z,99899.75
2023-04-29T04:43:18.620Z,99915.09
2023-04-29T04:48:23.102Z,99905.84
2023-04-29T04:53:28.222Z,99931.22
2023-04-29T04:58:36.871Z,99894.53
2023-04-29T05:03:41.914Z,99902.34
2023-04-29T05:08:46.526Z,99906.91
2023-04-29T05:13:51.849Z,99900.06
2023-04-29T05:18:56.681Z,99894.16
2023-04-29T05:24:09.420Z,99892.88
2023-04-29T05:29:14.296Z,99880.44
2023-04-29T05:34:26.266Z,99882.66
2023-04-29T05:39:30.308Z,99893.72
2023-04-29T05:44:44.720Z,99876.81
2023-04-29T05:49:50.047Z,99884.94
2023-04-29T05:54:54.099Z,99889.38
2023-04-29T06:00:00.304Z,99889.41
2023-04-29T06:05:09.701Z,99894.34
2023-04-29T06:10:20.201Z,99886.19
2023-04-29T06:15:24.471Z,99871.03
2023-04-29T06:20:29.121Z,99830.09
2023-04-29T06:25:33.334Z,99882.22
2023-04-29T06:30:41.018Z,99879.03
2023-04-29T06:35:45.585Z,99868.13
2023-04-29T06:41:07.857Z,99873.38
2023-04-29T06:46:31.105Z,99857.94
2023-04-29T06:51:46.201Z,99859.03
2023-04-29T06:56:50.049Z,99852.03
2023-04-29T07:01:54.942Z,99841.31
2023-04-29T07:07:00.365Z,99851.44
2023-04-29T07:12:05.920Z,99851.38
2023-04-29T07:17:10.930Z,99852.28
2023-04-29T07:22:16.911Z,99847.63
2023-04-29T07:27:21.006Z,99844.16
2023-04-29T07:32:25.190Z,99838.53
2023-04-29T07:37:29.262Z,99836.53
2023-04-29T07:42:33.448Z,99848.69
2023-04-29T07:47:38.492Z,99865.72
2023-04-29T07:52:42.723Z,99840.38
2023-04-29T07:57:46.802Z,99857.75
2023-04-29T08:02:57.686Z,99853.75
2023-04-29T08:08:03.173Z,99855.94
2023-04-29T08:13:07.082Z,99854.97
2023-04-29T08:18:11.225Z,99857.25
2023-04-29T08:23:15.267Z,99859.00
2023-04-29T08:28:19.837Z,99861.81
2023-04-29T08:33:23.965Z,99867.50
2023-04-29T08:38:28.652Z,99861.72
2023-04-29T08:43:36.193Z,99842.16
2023-04-29T08:48:44.773Z,99853.75
2023-04-29T08:53:49.226Z,99848.78
2023-04-29T08:58:59.628Z,99858.16
2023-04-29T09:04:14.119Z,99849.66
2023-04-29T09:09:20.836Z,99856.84
2023-04-29T09:14:26.411Z,99842.50
2023-04-29T09:19:35.772Z,99858.50
2023-04-29T09:24:40.581Z,99857.81
2023-04-29T09:30:01.649Z,99874.09
2023-04-29T09:35:24.558Z,99865.03
2023-04-29T09:40:46.623Z,99862.16
2023-04-29T09:45:54.876Z,99857.00
2023-04-29T09:51:06.827Z,99872.53
2023-04-29T09:56:10.756Z,99840.41
2023-04-29T10:01:18.839Z,99871.72
2023-04-29T10:06:24.996Z,99877.22
2023-04-29T10:11:29.453Z,99867.84
2023-04-29T10:16:42.870Z,99862.31
2023-04-29T10:21:50.642Z,99862.44
2023-04-29T10:26:57.579Z,99863.91
2023-04-29T10:32:02.897Z,99864.69
2023-04-29T10:37:12.146Z,99857.53
2023-04-29T10:42:47.141Z,99874.59
2023-04-29T10:48:13.311Z,99863.44
2023-04-29T10:53:23.216Z,99865.75
2023-04-29T10:58:37.192Z,99861.16
2023-04-29T11:03:59.635Z,99865.59
2023-04-29T11:09:08.488Z,99871.78
2023-04-29T11:14:14.822Z,99866.00
2023-04-29T11:19:19.225Z,99861.91
2023-04-29T11:24:23.421Z,99870.34
2023-04-29T11:29:28.802Z,99862.56
2023-04-29T11:34:34.195Z,99856.97
2023-04-29T11:39:38.214Z,99851.28
2023-04-29T11:44:42.309Z,99867.28
2023-04-29T11:49:46.302Z,99859.69
2023-04-29T11:54:50.552Z,99861.63
2023-04-29T11:59:54.820Z,99859.88
2023-04-29T12:05:02.309Z,99874.44
2023-04-29T12:10:12.004Z,99878.75
2023-04-29T12:15:16.886Z,99881.38
2023-04-29T12:20:21.282Z,99876.41
2023-04-29T12:25:29.063Z,99876.88
2023-04-29T12:30:36.713Z,99883.44
2023-04-29T12:35:40.851Z,99868.97
2023-04-29T12:40:46.460Z,99888.47
2023-04-29T12:45:50.469Z,99883.16
2023-04-29T12:50:54.693Z,99884.94
2023-04-29T12:55:59.697Z,99887.44
2023-04-29T13:01:04.366Z,99885.41
2023-04-29T13:06:09.528Z,99886.28
2023-04-29T13:11:14.190Z,99881.19
2023-04-29T13:16:18.792Z,99890.34
2023-04-29T13:21:23.023Z,99885.09
2023-04-29T13:26:28.075Z,99887.25
2023-04-29T13:31:32.284Z,99885.38
2023-04-29T13:36:36.882Z,99900.09
2023-04-29T13:41:42.242Z,99887.53
2023-04-29T13:46:50.522Z,99887.06
2023-04-29T13:52:45.800Z,99888.31
2023-04-29T13:57:50.053Z,99895.03
2023-04-29T14:02:45.325Z,99899.06
2023-04-29T14:07:49.750Z,99895.47
2023-04-29T14:12:53.695Z,99893.59
2023-04-29T14:17:57.676Z,99889.50
2023-04-29T14:23:01.754Z,99831.63
2023-04-29T14:28:06.137Z,99831.03
2023-04-29T14:33:10.685Z,99897.75
2023-04-29T14:38:15.137Z,99902.38
2023-04-29T14:43:19.549Z,99899.34
2023-04-29T14:48:23.631Z,99899.81
2023-04-29T14:53:27.540Z,99907.81
2023-04-29T14:58:31.806Z,99898.16
2023-04-29T15:08:57.694Z,99897.44
2023-04-29T15:14:01.692Z,99906.34
2023-04-29T15:19:05.719Z,99900.22
2023-04-29T15:24:10.084Z,99898.38
2023-04-29T15:29:14.042Z,99820.25
2023-04-29T15:34:17.998Z,99905.16
2023-04-29T15:39:22.044Z,99909.66
2023-04-29T15:44:26.157Z,99895.78
2023-04-29T15:49:31.425Z,99909.22
2023-04-29T15:54:35.515Z,99906.44
2023-04-29T15:59:39.439Z,99906.91
2023-04-29T16:04:43.535Z,99904.66
2023-04-29T16:09:47.761Z,99897.78
2023-04-29T16:14:52.306Z,99904.41
2023-04-29T16:19:56.618Z,99896.19
2023-04-29T16:25:00.706Z,99900.34
2023-04-29T16:30:06.728Z,99898.00
2023-04-29T16:35:11.870Z,99911.38
2023-04-29T16:40:15.909Z,99898.72
2023-04-29T16:45:21.624Z,99909.63
2023-04-29T16:50:27.898Z,99904.88
2023-04-29T16:55:32.290Z,99891.63
2023-04-29T17:00:36.684Z,99902.47
2023-04-29T17:05:41.270Z,99913.56
2023-04-29T17:10:45.813Z,99923.97
2023-04-29T17:15:49.820Z,99862.75
2023-04-29T17:20:54.079Z,99915.50
2023-04-29T17:25:58.279Z,99893.75
2023-04-29T17:31:03.498Z,99917.72
2023-04-29T17:36:07.861Z,99920.31
2023-04-29T17:41:12.032Z,99927.50
2023-04-29T17:46:16.081Z,99929.50
2023-04-29T17:51:19.951Z,99915.47
2023-04-29T17:56:24.054Z,99930.47
2023-04-29T18:01:28.217Z,99930.78
2023-04-29T18:06:32.530Z,99941.69
2023-04-29T18:11:36.642Z,99935.03
2023-04-29T18:16:41.320Z,99885.16
2023-04-29T18:21:45.462Z,99949.38
2023-04-29T18:26:49.557Z,99882.56
2023-04-29T18:31:55.684Z,99950.84
2023-04-29T18:36:59.737Z,99932.84
2023-04-29T18:42:05.265Z,99951.22
2023-04-29T18:47:09.133Z,99951.91
2023-04-29T18:52:13.429Z,99942.50
2023-04-29T18:57:17.568Z,99921.75
2023-04-29T19:02:21.642Z,99934.28
2023-04-29T19:07:25.676Z,99951.50
2023-04-29T19:12:29.555Z,99951.28
2023-04-29T19:17:33.651Z,99954.94
2023-04-29T19:22:38.212Z,99943.28
2023-04-29T19:27:45.921Z,99951.00
2023-04-29T19:32:49.815Z,99950.31
2023-04-29T19:37:55.497Z,99955.81
2023-04-29T19:42:59.450Z,99901.13
2023-04-29T19:48:04.764Z,99947.66
2023-04-29T19:53:08.695Z,99962.44
2023-04-29T19:58:12.937Z,99947.59
2023-04-29T20:03:17.206Z,99948.94
2023-04-29T20:08:21.308Z,99942.09
2023-04-29T20:13:25.378Z,99946.69
2023-04-29T20:18:29.379Z,99901.16
2023-04-29T20:23:33.418Z,99945.72
2023-04-29T20:28:39.631Z,99942.00
2023-04-29T20:34:44.106Z,99935.38
2023-04-29T20:39:48.665Z,99931.34
2023-04-29T20:44:52.713Z,99906.63
2023-04-29T20:49:56.810Z,99881.38
2023-04-29T20:55:02.003Z,99936.22
2023-04-29T21:00:09.562Z,99935.31
2023-04-29T21:05:15.235Z,99935.31
2023-04-29T21:10:19.382Z,99920.63
2023-04-29T21:15:25.197Z,99931.75
2023-04-29T21:20:29.191Z,99884.81
2023-04-29T21:25:33.431Z,99938.38
2023-04-29T21:30:37.622Z,99930.38
2023-04-29T21:35:44.023Z,99928.84
2023-04-29T21:40:49.159Z,99937.59
2023-04-29T21:45:55.609Z,99941.78
2023-04-29T21:51:00.555Z,99947.69
2023-04-29T21:56:06.296Z,99943.38
2023-04-29T22:01:36.862Z,99921.66
2023-04-29T22:06:40.951Z,99945.13
2023-04-29T22:11:44.998Z,99925.50
2023-04-29T22:16:49.072Z,99941.44
2023-04-29T22:21:53.145Z,99941.19
2023-04-29T22:26:57.377Z,99941.78
2023-04-29T22:32:01.592Z,99949.09
2023-04-29T22:37:05.854Z,99954.25
2023-04-29T22:42:09.742Z,99932.69
2023-04-29T22:47:13.873Z,99953.06
2023-04-29T22:52:17.796Z,99945.56
2023-04-29T22:57:21.919Z,99941.56
2023-04-29T23:02:30.255Z,99959.94
2023-04-29T23:07:34.667Z,99930.00
2023-04-29T23:12:38.613Z,99941.50
2023-04-29T23:17:42.625Z,99865.88
2023-04-29T23:22:46.710Z,99949.84
2023-04-29T23:27:50.640Z,99956.38
2023-04-29T23:32:54.936Z,99953.94
2023-04-29T23:37:58.977Z,99938.16
2023-04-29T23:43:03.052Z,99956.47
2023-04-29T23:48:07.296Z,99958.50
2023-04-29T23:53:11.252Z,99953.94
2023-04-29T23:58:15.297Z,99968.63
